Time;durP1;ratioP1;P1;durP2;ratioP2;P2;SDS_P1;SDS_P2;PMS_P1;PMS_P2;Temp;Humidity;BMP_temperature;BMP_pressure;BME280_temperature;BME280_humidity;BME280_pressure;Samples;Min_cycle;Max_cycle;Signal;HPM_P1;HPM_P2
2022/07/22 00:00:13;;;;;;;6.82;0.98;;;;;;;;;;4967533;28;20045;-65
2022/07/22 00:02:40;;;;;;;2.65;1.00;;;;;;;;;;4968061;28;20050;-64
2022/07/22 00:05:07;;;;;;;4.90;1.17;;;;;;;;;;4948663;28;20049;-64
2022/07/22 00:07:33;;;;;;;4.20;1.02;;;;;;;;;;4965595;28;20045;-63
2022/07/22 00:10:00;;;;;;;3.13;1.00;;;;;;;;;;4967575;28;20045;-64
2022/07/22 00:12:27;;;;;;;2.97;1.05;;;;;;;;;;4965586;28;20049;-66
2022/07/22 00:14:53;;;;;;;3.05;0.98;;;;;;;;;;4968280;28;20062;-63
2022/07/22 00:17:20;;;;;;;3.22;1.08;;;;;;;;;;4969888;28;20296;-65
2022/07/22 00:19:46;;;;;;;2.90;0.90;;;;;;;;;;4971193;28;20157;-64
2022/07/22 00:22:13;;;;;;;4.78;1.13;;;;;;;;;;4970229;28;20039;-63
2022/07/22 00:24:40;;;;;;;2.95;0.90;;;;;;;;;;4969265;28;20035;-64
2022/07/22 00:27:06;;;;;;;4.72;1.20;;;;;;;;;;4971201;28;20041;-63
2022/07/22 00:29:33;;;;;;;3.90;1.00;;;;;;;;;;4969940;28;20065;-62
2022/07/22 00:31:59;;;;;;;7.57;1.30;;;;;;;;;;4970132;28;20653;-63
2022/07/22 00:34:26;;;;;;;5.63;1.20;;;;;;;;;;4970466;28;20046;-64
2022/07/22 00:36:53;;;;;;;4.97;1.02;;;;;;;;;;4972862;28;20046;-62
2022/07/22 00:39:21;;;;;;;5.47;1.10;;;;;;;;;;4972118;28;20037;-64
2022/07/22 00:41:48;;;;;;;6.63;1.30;;;;;;;;;;4969828;28;20133;-64
2022/07/22 00:44:15;;;;;;;4.85;0.90;;;;;;;;;;4970252;28;20735;-63
2022/07/22 00:46:42;;;;;;;4.07;1.10;;;;;;;;;;4968759;28;20046;-65
2022/07/22 00:49:13;;;;;;;5.05;1.10;;;;;;;;;;4968725;28;20034;-64
2022/07/22 00:51:40;;;;;;;4.13;1.50;;;;;;;;;;4970061;28;20038;-64
2022/07/22 00:54:08;;;;;;;3.15;1.17;;;;;;;;;;4970058;28;20165;-64
2022/07/22 00:56:36;;;;;;;5.35;1.00;;;;;;;;;;4966747;28;20428;-64
2022/07/22 00:59:05;;;;;;;2.83;0.95;;;;;;;;;;4968814;28;20182;-67
2022/07/22 01:01:32;;;;;;;4.38;1.13;;;;;;;;;;4967938;28;20076;-64
2022/07/22 01:03:58;;;;;;;3.47;1.05;;;;;;;;;;4969730;28;20101;-64
2022/07/22 01:06:25;;;;;;;4.30;1.02;;;;;;;;;;4967426;28;20046;-64
2022/07/22 01:08:51;;;;;;;4.15;1.00;;;;;;;;;;4969088;28;20058;-63
2022/07/22 01:11:20;;;;;;;4.70;1.15;;;;;;;;;;4969090;28;20591;-64
2022/07/22 01:13:47;;;;;;;5.25;1.08;;;;;;;;;;4968384;28;21123;-64
2022/07/22 01:16:14;;;;;;;5.05;1.00;;;;;;;;;;4968874;28;20054;-64
2022/07/22 01:18:42;;;;;;;3.58;0.85;;;;;;;;;;4969675;28;20042;-63
2022/07/22 01:21:09;;;;;;;3.03;1.05;;;;;;;;;;4971578;28;20415;-63
2022/07/22 01:23:36;;;;;;;3.83;1.17;;;;;;;;;;4970410;28;20038;-63
2022/07/22 01:26:03;;;;;;;4.38;1.00;;;;;;;;;;4969469;28;20042;-63
2022/07/22 01:28:30;;;;;;;3.58;1.02;;;;;;;;;;4968982;28;20101;-64
2022/07/22 01:30:57;;;;;;;3.80;0.98;;;;;;;;;;4971071;28;20455;-64
2022/07/22 01:33:24;;;;;;;3.83;0.90;;;;;;;;;;4969715;28;20101;-63
2022/07/22 01:35:51;;;;;;;2.75;0.93;;;;;;;;;;4968984;28;20047;-63
2022/07/22 01:38:18;;;;;;;3.88;0.88;;;;;;;;;;4951803;28;20082;-64
2022/07/22 01:40:45;;;;;;;4.00;1.00;;;;;;;;;;4968126;28;20622;-64
2022/07/22 01:43:15;;;;;;;2.97;0.90;;;;;;;;;;4967808;28;20116;-63
2022/07/22 01:45:42;;;;;;;3.80;1.20;;;;;;;;;;4966017;28;20049;-64
2022/07/22 01:48:09;;;;;;;3.75;1.08;;;;;;;;;;4968490;28;20581;-64
2022/07/22 01:50:35;;;;;;;3.63;1.13;;;;;;;;;;4967831;28;20038;-63
2022/07/22 01:53:02;;;;;;;4.80;1.10;;;;;;;;;;4967325;28;20061;-63
2022/07/22 01:55:29;;;;;;;4.60;1.20;;;;;;;;;;4966507;28;20042;-64
2022/07/22 01:57:55;;;;;;;3.60;1.08;;;;;;;;;;4968623;28;20061;-63
2022/07/22 02:00:22;;;;;;;6.10;1.38;;;;;;;;;;4968118;28;20182;-64
2022/07/22 02:02:48;;;;;;;8.88;1.48;;;;;;;;;;4955628;28;20466;-64
2022/07/22 02:05:15;;;;;;;6.88;1.45;;;;;;;;;;4966715;28;20057;-64
2022/07/22 02:07:42;;;;;;;10.68;1.75;;;;;;;;;;4966270;28;20224;-64
2022/07/22 02:10:08;;;;;;;6.70;1.33;;;;;;;;;;4968014;28;20046;-64
2022/07/22 02:12:35;;;;;;;3.60;1.13;;;;;;;;;;4935416;28;20042;-63
2022/07/22 02:15:01;;;;;;;8.52;1.92;;;;;;;;;;4966929;28;20066;-64
2022/07/22 02:17:28;;;;;;;5.88;1.30;;;;;;;;;;4966052;28;20137;-63
2022/07/22 02:19:55;;;;;;;3.90;1.30;;;;;;;;;;4968182;28;20058;-63
2022/07/22 02:22:21;;;;;;;5.78;1.20;;;;;;;;;;4965968;28;20034;-63
2022/07/22 02:24:48;;;;;;;5.80;1.20;;;;;;;;;;4949519;28;20093;-63
2022/07/22 02:27:14;;;;;;;6.25;1.58;;;;;;;;;;4967346;28;20101;-64
2022/07/22 02:29:41;;;;;;;9.10;1.30;;;;;;;;;;4967164;28;20044;-64
2022/07/22 02:32:10;;;;;;;7.50;1.30;;;;;;;;;;4967490;28;20051;-63
2022/07/22 02:34:37;;;;;;;4.32;1.30;;;;;;;;;;4965274;28;20046;-63
2022/07/22 02:37:04;;;;;;;6.35;1.08;;;;;;;;;;4965989;28;20439;-63
2022/07/22 02:39:30;;;;;;;7.57;1.50;;;;;;;;;;4964561;28;20108;-63
2022/07/22 02:41:57;;;;;;;8.27;1.23;;;;;;;;;;4965959;28;20045;-64
2022/07/22 02:44:23;;;;;;;7.40;1.48;;;;;;;;;;4948129;28;20872;-63
2022/07/22 02:46:50;;;;;;;9.40;1.52;;;;;;;;;;4967347;28;20444;-64
2022/07/22 02:49:16;;;;;;;4.57;1.30;;;;;;;;;;4968126;28;20109;-64
2022/07/22 02:51:43;;;;;;;6.25;1.83;;;;;;;;;;4966878;28;20046;-62
2022/07/22 02:54:09;;;;;;;5.55;1.27;;;;;;;;;;4967679;28;20051;-62
2022/07/22 02:56:38;;;;;;;4.88;1.20;;;;;;;;;;4968800;28;20066;-62
2022/07/22 02:59:05;;;;;;;3.60;1.10;;;;;;;;;;4969665;28;20080;-62
2022/07/22 03:01:32;;;;;;;9.02;1.30;;;;;;;;;;4965834;28;20153;-63
2022/07/22 03:03:58;;;;;;;5.93;1.10;;;;;;;;;;4967279;28;20050;-63
2022/07/22 03:06:25;;;;;;;5.78;1.48;;;;;;;;;;4966632;28;20106;-62
2022/07/22 03:08:52;;;;;;;6.38;2.25;;;;;;;;;;4966262;28;20074;-59
2022/07/22 03:11:18;;;;;;;5.13;1.70;;;;;;;;;;4966198;28;20574;-61
2022/07/22 03:13:45;;;;;;;6.68;1.40;;;;;;;;;;4967065;28;20484;-60
2022/07/22 03:16:12;;;;;;;6.47;1.40;;;;;;;;;;4967794;28;20053;-62
2022/07/22 03:18:38;;;;;;;4.38;1.30;;;;;;;;;;4964544;28;20042;-62
2022/07/22 03:21:05;;;;;;;5.93;1.55;;;;;;;;;;4966925;28;20503;-61
2022/07/22 03:23:32;;;;;;;5.50;1.30;;;;;;;;;;4964406;28;20039;-63
2022/07/22 03:25:58;;;;;;;5.72;1.30;;;;;;;;;;4966137;28;21704;-62
2022/07/22 03:28:27;;;;;;;6.40;1.30;;;;;;;;;;4966152;28;20050;-64
2022/07/22 03:30:54;;;;;;;6.57;1.40;;;;;;;;;;4966341;28;20651;-61
2022/07/22 03:33:20;;;;;;;6.63;1.25;;;;;;;;;;4967169;28;20205;-62
2022/07/22 03:35:47;;;;;;;8.32;1.48;;;;;;;;;;4965611;28;20054;-63
2022/07/22 03:38:13;;;;;;;4.75;1.40;;;;;;;;;;4966804;28;20772;-61
2022/07/22 03:40:40;;;;;;;8.45;1.30;;;;;;;;;;4964083;28;20046;-62
2022/07/22 03:43:07;;;;;;;6.30;1.35;;;;;;;;;;4965552;28;20053;-60
2022/07/22 03:45:33;;;;;;;6.63;2.78;;;;;;;;;;4965824;28;20058;-62
2022/07/22 03:48:00;;;;;;;6.15;1.80;;;;;;;;;;4967664;28;20042;-61
2022/07/22 03:50:26;;;;;;;3.55;1.15;;;;;;;;;;4951400;28;20039;-61
2022/07/22 03:52:53;;;;;;;9.32;2.15;;;;;;;;;;4970560;28;20088;-61
2022/07/22 03:55:20;;;;;;;5.72;1.42;;;;;;;;;;4969982;28;20126;-62
2022/07/22 03:57:46;;;;;;;5.57;1.67;;;;;;;;;;4968626;28;20039;-63
2022/07/22 04:00:13;;;;;;;7.35;1.60;;;;;;;;;;4969749;28;20137;-62
2022/07/22 04:02:39;;;;;;;8.13;1.92;;;;;;;;;;4967832;28;20047;-62
2022/07/22 04:05:06;;;;;;;5.82;1.40;;;;;;;;;;4970570;28;20086;-64
2022/07/22 04:07:33;;;;;;;9.85;1.60;;;;;;;;;;4971129;28;20039;-64
2022/07/22 04:10:05;;;;;;;5.47;1.63;;;;;;;;;;4970297;28;20494;-63
2022/07/22 04:12:32;;;;;;;;;;;;;;;;;;4972658;28;20042;-64
2022/07/22 04:14:58;;;;;;;6.95;1.90;;;;;;;;;;4971682;28;19953;-63
2022/07/22 04:17:25;;;;;;;14.50;1.85;;;;;;;;;;4969766;28;21099;-63
2022/07/22 04:19:51;;;;;;;8.27;2.05;;;;;;;;;;4951709;28;22122;-63
2022/07/22 04:22:19;;;;;;;4.50;1.80;;;;;;;;;;4969244;28;20042;-62
2022/07/22 04:24:45;;;;;;;5.32;1.58;;;;;;;;;;4967111;28;20156;-63
2022/07/22 04:27:12;;;;;;;6.20;1.73;;;;;;;;;;4969738;28;20038;-64
2022/07/22 04:29:38;;;;;;;5.00;1.70;;;;;;;;;;4967629;28;20041;-63
2022/07/22 04:32:08;;;;;;;5.85;1.65;;;;;;;;;;4968966;28;20043;-63
2022/07/22 04:34:34;;;;;;;5.15;1.58;;;;;;;;;;4949900;28;21745;-62
2022/07/22 04:37:01;;;;;;;4.03;1.20;;;;;;;;;;4969384;28;20471;-63
2022/07/22 04:39:27;;;;;;;4.93;1.63;;;;;;;;;;4967893;28;20411;-62
2022/07/22 04:41:54;;;;;;;6.85;1.73;;;;;;;;;;4965526;28;20042;-63
2022/07/22 04:44:20;;;;;;;9.00;1.70;;;;;;;;;;4968102;28;20054;-62
2022/07/22 04:46:47;;;;;;;9.80;1.73;;;;;;;;;;4967369;28;21106;-62
2022/07/22 04:49:14;;;;;;;8.00;1.80;;;;;;;;;;4969774;28;20165;-62
2022/07/22 04:51:41;;;;;;;7.47;1.85;;;;;;;;;;4968593;28;20038;-62
2022/07/22 04:54:07;;;;;;;5.78;1.45;;;;;;;;;;4969122;28;20142;-62
2022/07/22 04:56:34;;;;;;;5.75;1.83;;;;;;;;;;4966767;28;20058;-62
2022/07/22 04:59:01;;;;;;;4.88;1.45;;;;;;;;;;4967145;28;20950;-62
2022/07/22 05:01:27;;;;;;;9.70;1.83;;;;;;;;;;4967153;28;20034;-61
2022/07/22 05:03:55;;;;;;;5.53;1.60;;;;;;;;;;4969377;28;20117;-62
2022/07/22 05:06:21;;;;;;;4.72;1.73;;;;;;;;;;4968009;28;20038;-62
2022/07/22 05:08:48;;;;;;;6.47;1.83;;;;;;;;;;4968008;28;20047;-61
2022/07/22 05:11:15;;;;;;;5.20;1.85;;;;;;;;;;4969725;28;20039;-61
2022/07/22 05:13:41;;;;;;;7.68;2.30;;;;;;;;;;4967721;28;20239;-63
2022/07/22 05:16:08;;;;;;;8.60;2.92;;;;;;;;;;4967714;28;20046;-63
2022/07/22 05:18:34;;;;;;;7.20;2.50;;;;;;;;;;4968020;28;20162;-64
2022/07/22 05:21:01;;;;;;;5.47;2.20;;;;;;;;;;4967794;28;20090;-63
2022/07/22 05:23:28;;;;;;;7.55;2.10;;;;;;;;;;4967649;28;20046;-63
2022/07/22 05:25:55;;;;;;;5.50;1.77;;;;;;;;;;4968798;28;20104;-62
2022/07/22 05:28:21;;;;;;;4.72;1.95;;;;;;;;;;4966762;28;20046;-63
2022/07/22 05:30:48;;;;;;;6.05;1.90;;;;;;;;;;4968758;28;20050;-62
2022/07/22 05:33:15;;;;;;;5.88;2.30;;;;;;;;;;4967625;28;20093;-61
2022/07/22 05:35:41;;;;;;;7.05;2.55;;;;;;;;;;4968175;28;20042;-60
2022/07/22 05:38:08;;;;;;;6.30;2.47;;;;;;;;;;4968366;28;20125;-62
2022/07/22 05:40:34;;;;;;;10.00;3.00;;;;;;;;;;4967189;28;20054;-63
2022/07/22 05:43:01;;;;;;;9.45;2.30;;;;;;;;;;4966973;28;20049;-63
2022/07/22 05:45:27;;;;;;;6.18;2.08;;;;;;;;;;4966048;28;20035;-63
2022/07/22 05:47:54;;;;;;;6.22;2.08;;;;;;;;;;4968913;28;20141;-62
2022/07/22 05:50:21;;;;;;;5.68;2.42;;;;;;;;;;4968351;28;20034;-62
2022/07/22 05:52:47;;;;;;;5.38;2.20;;;;;;;;;;4965947;28;20046;-62
2022/07/22 05:55:14;;;;;;;7.07;2.30;;;;;;;;;;4966937;28;20149;-63
2022/07/22 05:57:40;;;;;;;7.13;2.22;;;;;;;;;;4966917;28;20181;-62
2022/07/22 06:00:07;;;;;;;7.10;2.42;;;;;;;;;;4968025;28;20084;-62
2022/07/22 06:02:34;;;;;;;9.18;2.03;;;;;;;;;;4965448;28;20049;-61
2022/07/22 06:05:00;;;;;;;5.30;2.30;;;;;;;;;;4965612;28;20051;-62
2022/07/22 06:07:27;;;;;;;12.95;2.10;;;;;;;;;;4967351;28;20043;-61
2022/07/22 06:09:54;;;;;;;8.90;1.92;;;;;;;;;;4966587;28;20042;-59
2022/07/22 06:12:21;;;;;;;5.32;1.80;;;;;;;;;;4949294;28;20038;-62
2022/07/22 06:14:47;;;;;;;7.57;2.20;;;;;;;;;;4967112;28;20503;-63
2022/07/22 06:17:14;;;;;;;6.78;1.60;;;;;;;;;;4967410;28;20050;-62
2022/07/22 06:19:40;;;;;;;3.92;1.42;;;;;;;;;;4966841;28;20027;-63
2022/07/22 06:22:07;;;;;;;6.38;2.05;;;;;;;;;;4966171;28;20427;-62
2022/07/22 06:24:34;;;;;;;7.53;2.55;;;;;;;;;;4964775;28;20042;-62
2022/07/22 06:27:00;;;;;;;5.95;1.77;;;;;;;;;;4966679;28;20118;-62
2022/07/22 06:29:27;;;;;;;5.63;1.80;;;;;;;;;;4966398;28;20728;-63
2022/07/22 06:31:53;;;;;;;7.13;1.98;;;;;;;;;;4966454;28;20799;-63
2022/07/22 06:34:20;;;;;;;5.28;2.05;;;;;;;;;;4966543;28;20332;-62
2022/07/22 06:36:46;;;;;;;5.55;1.80;;;;;;;;;;4965576;28;20498;-62
2022/07/22 06:39:13;;;;;;;6.35;2.10;;;;;;;;;;4968311;28;20050;-63
2022/07/22 06:41:40;;;;;;;8.27;2.13;;;;;;;;;;4966818;28;20042;-63
2022/07/22 06:44:06;;;;;;;4.95;1.67;;;;;;;;;;4966755;28;20081;-62
2022/07/22 06:46:33;;;;;;;9.32;1.75;;;;;;;;;;4964289;28;20122;-64
2022/07/22 06:48:59;;;;;;;4.22;1.50;;;;;;;;;;4966073;28;20047;-62
2022/07/22 06:51:26;;;;;;;4.35;1.77;;;;;;;;;;4967238;28;21000;-61
2022/07/22 06:53:52;;;;;;;5.22;1.70;;;;;;;;;;4966376;28;20057;-61
2022/07/22 06:56:19;;;;;;;5.28;1.83;;;;;;;;;;4967247;28;20125;-61
2022/07/22 06:58:46;;;;;;;8.43;1.83;;;;;;;;;;4966398;28;20795;-61
2022/07/22 07:01:12;;;;;;;7.40;1.92;;;;;;;;;;4936276;28;20116;-61
2022/07/22 07:03:39;;;;;;;5.97;2.03;;;;;;;;;;4966226;28;20062;-61
2022/07/22 07:06:08;;;;;;;10.60;2.00;;;;;;;;;;4966103;28;20047;-61
2022/07/22 07:08:34;;;;;;;8.38;2.17;;;;;;;;;;4964195;28;20041;-61
2022/07/22 07:11:01;;;;;;;6.53;1.65;;;;;;;;;;4966545;28;20653;-61
2022/07/22 07:13:28;;;;;;;10.35;2.00;;;;;;;;;;4966538;28;20129;-61
2022/07/22 07:15:54;;;;;;;6.32;1.55;;;;;;;;;;4951320;28;20057;-61
2022/07/22 07:18:21;;;;;;;5.30;1.73;;;;;;;;;;4967202;28;20038;-61
2022/07/22 07:20:47;;;;;;;9.90;2.03;;;;;;;;;;4964386;28;20063;-60
2022/07/22 07:23:14;;;;;;;5.90;1.65;;;;;;;;;;4968888;28;20038;-61
2022/07/22 07:25:41;;;;;;;6.68;1.67;;;;;;;;;;4968593;28;20031;-62
2022/07/22 07:28:07;;;;;;;6.53;1.95;;;;;;;;;;4970372;28;20373;-60
2022/07/22 07:30:34;;;;;;;9.18;1.88;;;;;;;;;;4969609;28;20050;-62
2022/07/22 07:33:01;;;;;;;7.78;1.80;;;;;;;;;;4970265;28;20046;-61
2022/07/22 07:35:28;;;;;;;4.93;1.83;;;;;;;;;;4969668;28;20046;-60
2022/07/22 07:37:55;;;;;;;5.13;1.90;;;;;;;;;;4971240;28;20133;-61
2022/07/22 07:40:21;;;;;;;10.50;2.00;;;;;;;;;;4972092;28;20102;-60
2022/07/22 07:42:48;;;;;;;8.65;1.98;;;;;;;;;;4972364;28;20054;-61
2022/07/22 07:45:14;;;;;;;5.25;2.05;;;;;;;;;;4962295;28;20046;-61
2022/07/22 07:47:41;;;;;;;12.85;2.10;;;;;;;;;;4969558;28;20058;-61
2022/07/22 07:50:08;;;;;;;4.50;1.50;;;;;;;;;;4970778;28;20093;-61
2022/07/22 07:52:39;;;;;;;5.78;1.95;;;;;;;;;;4969740;28;20038;-61
2022/07/22 07:55:06;;;;;;;7.35;2.13;;;;;;;;;;4969770;28;20054;-61
2022/07/22 07:57:33;;;;;;;7.72;1.70;;;;;;;;;;4969693;28;20117;-62
2022/07/22 07:59:59;;;;;;;10.73;2.20;;;;;;;;;;4969955;28;20035;-62
2022/07/22 08:02:26;;;;;;;7.03;2.25;;;;;;;;;;4969182;28;20101;-61
2022/07/22 08:04:53;;;;;;;6.00;1.77;;;;;;;;;;4969689;28;20058;-61
2022/07/22 08:07:19;;;;;;;10.05;2.10;;;;;;;;;;4970373;28;20049;-61
2022/07/22 08:09:46;;;;;;;7.40;2.42;;;;;;;;;;4969278;28;20043;-61
2022/07/22 08:12:13;;;;;;;6.57;1.90;;;;;;;;;;4970706;28;20041;-61
2022/07/22 08:14:39;;;;;;;7.22;1.70;;;;;;;;;;4969340;28;20047;-61
2022/07/22 08:17:06;;;;;;;4.43;1.55;;;;;;;;;;4970014;28;20109;-61
2022/07/22 08:19:32;;;;;;;4.30;2.08;;;;;;;;;;4967235;28;20122;-60
2022/07/22 08:22:00;;;;;;;6.57;2.00;;;;;;;;;;4969028;28;20043;-60
2022/07/22 08:24:26;;;;;;;7.45;2.28;;;;;;;;;;4967714;28;20050;-61
2022/07/22 08:26:53;;;;;;;3.97;1.80;;;;;;;;;;4969794;28;20057;-61
2022/07/22 08:29:19;;;;;;;6.47;1.85;;;;;;;;;;4969050;28;20043;-61
2022/07/22 08:31:46;;;;;;;5.00;1.65;;;;;;;;;;4968221;28;20039;-61
2022/07/22 08:34:13;;;;;;;5.20;1.80;;;;;;;;;;4969074;28;20074;-61
2022/07/22 08:36:39;;;;;;;4.72;2.20;;;;;;;;;;4968952;28;20566;-61
2022/07/22 08:39:06;;;;;;;6.90;1.88;;;;;;;;;;4967662;28;20043;-61
2022/07/22 08:41:37;;;;;;;6.07;1.92;;;;;;;;;;4967567;28;20037;-61
2022/07/22 08:44:04;;;;;;;8.13;1.77;;;;;;;;;;4968452;28;20798;-62
2022/07/22 08:46:31;;;;;;;4.72;1.85;;;;;;;;;;4968632;28;20035;-61
2022/07/22 08:49:00;;;;;;;7.43;1.77;;;;;;;;;;4970486;28;20062;-62
2022/07/22 08:51:27;;;;;;;6.45;1.70;;;;;;;;;;4967460;28;20046;-61
2022/07/22 08:53:53;;;;;;;6.93;1.80;;;;;;;;;;4967649;28;20424;-60
2022/07/22 08:56:20;;;;;;;5.65;1.85;;;;;;;;;;4969151;28;20863;-60
2022/07/22 08:58:46;;;;;;;5.80;1.80;;;;;;;;;;4968664;28;20038;-61
2022/07/22 09:01:15;;;;;;;4.50;1.67;;;;;;;;;;4969611;28;20424;-60
2022/07/22 09:04:00;;;;;;;6.47;1.70;;;;;;;;;;4968631;28;20128;-60
2022/07/22 09:06:33;;;;;;;1.77;0.73;;;;;;;;;;4968873;28;20427;-60
2022/07/22 09:09:01;;;;;;;7.85;1.77;;;;;;;;;;4969081;28;20056;-61
2022/07/22 09:11:28;;;;;;;7.90;1.55;;;;;;;;;;4952277;28;20046;-60
2022/07/22 09:13:56;;;;;;;7.65;1.77;;;;;;;;;;4969469;28;20102;-60
2022/07/22 09:16:41;;;;;;;5.40;1.73;;;;;;;;;;4941106;28;20054;-61
2022/07/22 09:19:07;;;;;;;4.03;1.60;;;;;;;;;;4970187;28;20050;-60
2022/07/22 09:21:37;;;;;;;6.20;1.25;;;;;;;;;;4969110;28;20039;-60
2022/07/22 09:24:07;;;;;;;4.93;1.50;;;;;;;;;;4967948;28;20042;-60
2022/07/22 09:26:38;;;;;;;9.40;1.30;;;;;;;;;;4968584;28;20522;-60
2022/07/22 09:29:06;;;;;;;6.40;1.45;;;;;;;;;;4968683;28;20133;-60
2022/07/22 09:31:34;;;;;;;9.52;1.58;;;;;;;;;;4967708;28;20042;-62
2022/07/22 09:34:01;;;;;;;4.20;1.40;;;;;;;;;;4969444;28;20039;-61
2022/07/22 09:36:28;;;;;;;2.85;1.10;;;;;;;;;;4966816;28;20714;-61
2022/07/22 09:38:55;;;;;;;4.18;1.48;;;;;;;;;;4967901;28;20104;-60
2022/07/22 09:41:21;;;;;;;8.75;1.30;;;;;;;;;;4967410;28;20154;-61
2022/07/22 09:43:49;;;;;;;2.60;0.93;;;;;;;;;;4967238;28;20078;-60
2022/07/22 09:46:16;;;;;;;5.22;1.40;;;;;;;;;;4965685;28;20046;-62
2022/07/22 09:48:43;;;;;;;4.90;1.20;;;;;;;;;;4967533;28;20048;-61
2022/07/22 09:51:09;;;;;;;3.85;1.00;;;;;;;;;;4968464;28;20521;-60
2022/07/22 09:53:36;;;;;;;3.75;1.10;;;;;;;;;;4967905;28;20189;-61
2022/07/22 09:56:05;;;;;;;5.25;1.15;;;;;;;;;;4967938;28;20197;-62
2022/07/22 09:58:31;;;;;;;6.82;1.20;;;;;;;;;;4965434;28;20034;-61
2022/07/22 10:00:59;;;;;;;2.60;1.00;;;;;;;;;;4968147;28;20093;-61
2022/07/22 10:03:30;;;;;;;4.90;1.00;;;;;;;;;;4967083;28;20082;-61
2022/07/22 10:05:57;;;;;;;3.15;1.10;;;;;;;;;;4966571;28;20046;-61
2022/07/22 10:08:26;;;;;;;4.95;1.20;;;;;;;;;;4966579;28;20035;-62
2022/07/22 10:10:53;;;;;;;4.00;1.30;;;;;;;;;;4967615;28;20514;-61
2022/07/22 10:13:19;;;;;;;4.93;1.33;;;;;;;;;;4966779;28;20459;-60
2022/07/22 10:15:46;;;;;;;3.88;0.80;;;;;;;;;;4965676;28;20050;-60
2022/07/22 10:18:17;;;;;;;4.57;1.63;;;;;;;;;;4966677;28;20874;-60
2022/07/22 10:20:44;;;;;;;2.38;0.95;;;;;;;;;;4966528;28;20519;-60
2022/07/22 10:23:12;;;;;;;8.05;1.27;;;;;;;;;;4968153;28;20113;-61
2022/07/22 10:25:59;;;;;;;3.58;1.20;;;;;;;;;;4966380;28;20149;-59
2022/07/22 10:28:29;;;;;;;6.50;1.25;;;;;;;;;;4966765;28;20030;-61
2022/07/22 10:31:14;;;;;;;3.65;1.08;;;;;;;;;;4967674;28;20035;-60
2022/07/22 10:33:41;;;;;;;5.20;1.38;;;;;;;;;;4965475;28;20516;-59
2022/07/22 10:36:09;;;;;;;3.03;0.82;;;;;;;;;;4966375;28;20450;-60
2022/07/22 10:38:35;;;;;;;9.07;1.20;;;;;;;;;;4965994;28;20043;-61
2022/07/22 10:41:03;;;;;;;6.32;1.20;;;;;;;;;;4967238;28;20522;-61
2022/07/22 10:43:32;;;;;;;3.90;1.20;;;;;;;;;;4967024;28;20514;-61
2022/07/22 10:46:06;;;;;;;6.07;1.30;;;;;;;;;;4966095;28;20057;-60
2022/07/22 10:48:38;;;;;;;3.60;1.02;;;;;;;;;;4966214;28;20538;-60
2022/07/22 10:51:09;;;;;;;3.90;1.33;;;;;;;;;;4967046;28;20054;-61
2022/07/22 10:53:40;;;;;;;3.65;1.30;;;;;;;;;;4966032;28;20062;-61
2022/07/22 10:56:14;;;;;;;4.53;1.30;;;;;;;;;;4965583;28;20058;-61
2022/07/22 10:58:42;;;;;;;3.60;1.30;;;;;;;;;;4967017;28;20046;-60
2022/07/22 11:01:11;;;;;;;6.18;1.30;;;;;;;;;;4965210;28;20039;-60
2022/07/22 11:03:39;;;;;;;3.90;1.25;;;;;;;;;;4967110;28;20058;-61
2022/07/22 11:06:16;;;;;;;4.88;1.50;;;;;;;;;;4965981;28;20042;-60
2022/07/22 11:08:43;;;;;;;4.70;1.40;;;;;;;;;;4966298;28;20042;-59
2022/07/22 11:11:09;;;;;;;4.68;1.50;;;;;;;;;;4968699;28;20054;-60
2022/07/22 11:13:37;;;;;;;3.60;1.30;;;;;;;;;;4965794;28;20042;-61
2022/07/22 11:16:24;;;;;;;4.78;1.23;;;;;;;;;;4965413;28;20058;-60
2022/07/22 11:18:52;;;;;;;2.97;1.25;;;;;;;;;;4966070;28;20053;-60
2022/07/22 11:21:20;;;;;;;3.80;1.35;;;;;;;;;;4967585;28;20043;-59
2022/07/22 11:23:48;;;;;;;3.08;1.30;;;;;;;;;;4967368;28;20407;-60
2022/07/22 11:26:16;;;;;;;8.27;1.40;;;;;;;;;;4969172;28;20487;-61
2022/07/22 11:28:46;;;;;;;4.85;1.60;;;;;;;;;;4934689;28;20050;-60
2022/07/22 11:31:16;;;;;;;6.10;1.60;;;;;;;;;;4965745;28;20592;-61
2022/07/22 11:33:43;;;;;;;6.15;1.40;;;;;;;;;;4964199;28;20042;-59
2022/07/22 11:36:10;;;;;;;8.43;1.88;;;;;;;;;;4965154;28;20660;-60
2022/07/22 11:38:42;;;;;;;4.18;1.58;;;;;;;;;;4965139;28;20101;-60
2022/07/22 11:41:09;;;;;;;8.23;1.58;;;;;;;;;;4966193;28;20054;-60
2022/07/22 11:43:42;;;;;;;4.65;1.40;;;;;;;;;;4965180;28;20117;-60
2022/07/22 11:46:09;;;;;;;5.93;1.70;;;;;;;;;;4964587;28;20062;-61
2022/07/22 11:48:37;;;;;;;6.72;1.50;;;;;;;;;;4965547;28;20030;-59
2022/07/22 11:51:04;;;;;;;4.53;1.27;;;;;;;;;;4966155;28;20062;-61
2022/07/22 11:53:31;;;;;;;6.38;1.40;;;;;;;;;;4964618;28;20065;-59
2022/07/22 11:55:58;;;;;;;5.65;1.67;;;;;;;;;;4966839;28;20062;-59
2022/07/22 11:58:39;;;;;;;5.20;1.48;;;;;;;;;;4947814;28;20086;-60
2022/07/22 12:01:06;;;;;;;3.55;1.40;;;;;;;;;;4964527;28;20075;-60
2022/07/22 12:03:37;;;;;;;4.43;1.48;;;;;;;;;;4966240;28;20118;-60
2022/07/22 12:06:05;;;;;;;4.43;1.58;;;;;;;;;;4963718;28;20420;-61
2022/07/22 12:08:32;;;;;;;5.20;1.58;;;;;;;;;;4965366;28;20070;-61
2022/07/22 12:10:59;;;;;;;5.03;1.60;;;;;;;;;;4968492;28;20096;-60
2022/07/22 12:13:30;;;;;;;4.30;1.67;;;;;;;;;;4969354;28;20043;-61
2022/07/22 12:15:57;;;;;;;3.45;1.45;;;;;;;;;;4967901;28;20153;-60
2022/07/22 12:18:25;;;;;;;3.75;1.75;;;;;;;;;;4969217;28;20035;-61
2022/07/22 12:20:53;;;;;;;7.38;1.80;;;;;;;;;;4969575;28;20050;-59
2022/07/22 12:23:19;;;;;;;4.55;1.70;;;;;;;;;;4969883;28;20138;-60
2022/07/22 12:25:53;;;;;;;5.38;2.03;;;;;;;;;;4967112;28;20049;-61
2022/07/22 12:28:19;;;;;;;3.17;1.35;;;;;;;;;;4970779;28;20038;-58
2022/07/22 12:30:46;;;;;;;4.28;1.77;;;;;;;;;;4968717;28;20542;-61
2022/07/22 12:33:17;;;;;;;6.57;1.42;;;;;;;;;;4967375;28;20039;-61
2022/07/22 12:35:44;;;;;;;3.83;1.40;;;;;;;;;;4967835;28;20058;-60
2022/07/22 12:38:11;;;;;;;5.85;1.45;;;;;;;;;;4968624;28;20073;-61
2022/07/22 12:40:38;;;;;;;4.38;1.50;;;;;;;;;;4968982;28;20062;-61
2022/07/22 12:43:09;;;;;;;7.97;1.50;;;;;;;;;;4968421;28;20641;-61
2022/07/22 12:45:37;;;;;;;4.15;1.55;;;;;;;;;;4965561;28;20069;-61
2022/07/22 12:48:03;;;;;;;4.95;1.45;;;;;;;;;;4969937;28;20141;-63
2022/07/22 12:50:40;;;;;;;3.90;1.58;;;;;;;;;;4968460;28;20046;-58
2022/07/22 12:53:09;;;;;;;5.18;1.88;;;;;;;;;;4968793;28;20072;-61
2022/07/22 12:55:39;;;;;;;4.80;1.58;;;;;;;;;;4967227;28;20097;-61
2022/07/22 12:58:07;;;;;;;3.42;1.50;;;;;;;;;;4969419;28;20046;-61
2022/07/22 13:00:35;;;;;;;5.28;1.65;;;;;;;;;;4968224;28;20231;-60
2022/07/22 13:03:01;;;;;;;5.72;1.60;;;;;;;;;;4968582;28;20046;-60
2022/07/22 13:05:28;;;;;;;5.60;1.67;;;;;;;;;;4966215;28;20042;-61
2022/07/22 13:07:55;;;;;;;5.03;1.45;;;;;;;;;;4967621;28;20423;-61
2022/07/22 13:10:22;;;;;;;3.72;1.20;;;;;;;;;;4968442;28;20039;-60
2022/07/22 13:12:49;;;;;;;4.28;1.73;;;;;;;;;;4970279;28;20745;-61
2022/07/22 13:15:16;;;;;;;4.80;1.50;;;;;;;;;;4970182;28;20042;-60
2022/07/22 13:17:43;;;;;;;3.78;1.50;;;;;;;;;;4968356;28;20073;-60
2022/07/22 13:20:10;;;;;;;7.13;1.70;;;;;;;;;;4970065;28;20046;-59
2022/07/22 13:22:36;;;;;;;3.90;1.40;;;;;;;;;;4969897;28;20402;-60
2022/07/22 13:25:04;;;;;;;7.57;1.63;;;;;;;;;;4970270;28;20046;-60
2022/07/22 13:27:30;;;;;;;4.45;1.85;;;;;;;;;;4968410;28;20573;-60
2022/07/22 13:29:57;;;;;;;3.83;1.40;;;;;;;;;;4971692;28;20046;-60
2022/07/22 13:32:23;;;;;;;4.38;1.55;;;;;;;;;;4950449;28;20053;-60
2022/07/22 13:34:50;;;;;;;3.80;1.60;;;;;;;;;;4969099;28;20039;-60
2022/07/22 13:37:17;;;;;;;3.50;1.33;;;;;;;;;;4968823;28;20492;-59
2022/07/22 13:39:45;;;;;;;5.32;1.42;;;;;;;;;;4967647;28;20378;-64
2022/07/22 13:42:12;;;;;;;3.45;1.50;;;;;;;;;;4968719;28;20158;-61
2022/07/22 13:44:39;;;;;;;3.97;1.30;;;;;;;;;;4970154;28;21783;-63
2022/07/22 13:47:06;;;;;;;7.43;1.65;;;;;;;;;;4970703;28;20090;-61
2022/07/22 13:49:32;;;;;;;3.92;1.60;;;;;;;;;;4970903;28;20031;-61
2022/07/22 13:52:00;;;;;;;5.20;1.85;;;;;;;;;;4971205;28;20499;-59
2022/07/22 13:54:27;;;;;;;3.78;1.42;;;;;;;;;;4971119;28;20097;-62
2022/07/22 13:56:53;;;;;;;3.42;1.20;;;;;;;;;;4967845;28;20128;-61
2022/07/22 13:59:20;;;;;;;4.82;1.50;;;;;;;;;;4970312;28;20399;-62
2022/07/22 14:01:47;;;;;;;4.55;1.40;;;;;;;;;;4965911;28;20049;-61
2022/07/22 14:04:13;;;;;;;5.38;1.48;;;;;;;;;;4967083;28;20068;-62
2022/07/22 14:06:40;;;;;;;3.35;1.30;;;;;;;;;;4965372;28;20097;-61
2022/07/22 14:09:06;;;;;;;6.50;1.13;;;;;;;;;;4967721;28;20046;-60
2022/07/22 14:11:33;;;;;;;6.65;1.13;;;;;;;;;;4966046;28;20170;-59
2022/07/22 14:14:00;;;;;;;5.28;1.33;;;;;;;;;;4967362;28;20046;-61
2022/07/22 14:16:35;;;;;;;3.35;1.25;;;;;;;;;;4963432;28;20057;-65
2022/07/22 14:19:02;;;;;;;5.45;1.30;;;;;;;;;;4966904;28;20073;-60
2022/07/22 14:21:28;;;;;;;3.42;1.05;;;;;;;;;;4965625;28;20089;-60
2022/07/22 14:23:55;;;;;;;9.52;1.40;;;;;;;;;;4967206;28;20154;-59
2022/07/22 14:26:22;;;;;;;3.05;1.10;;;;;;;;;;4965751;28;20093;-59
2022/07/22 14:28:48;;;;;;;4.20;1.30;;;;;;;;;;4965548;28;20126;-61
2022/07/22 14:31:15;;;;;;;4.05;1.30;;;;;;;;;;4967330;28;20047;-58
2022/07/22 14:33:42;;;;;;;9.20;1.48;;;;;;;;;;4964494;28;20046;-60
2022/07/22 14:36:08;;;;;;;4.18;1.23;;;;;;;;;;4965545;28;20051;-58
2022/07/22 14:38:35;;;;;;;5.78;1.58;;;;;;;;;;4967290;28;20787;-60
2022/07/22 14:41:02;;;;;;;4.55;1.33;;;;;;;;;;4966433;28;20105;-63
2022/07/22 14:43:28;;;;;;;3.40;1.35;;;;;;;;;;4965360;28;20432;-60